Ternholm — OWIM2 — position and weather

sailwx.info

Track history (hours):
 
Tides and Currents Weather Stations Pressure Air Temp Water Temp Dewpoint Dewpoint Depression Visibility Wind Speed Wind Dir Waves Ship Positions

Ternholm

Last reported at 2015-Apr-27 21:28 UTC. Time now 2015-Apr-27 22:15 UTC.
Position N 52°28' E 004°09'.

Length 141 m; draft 7.9 m.

Type: Ship (hazmat cat B). MMSI: 219076000.

Date/timePositionNaut miles runAvg speedWind from/ knotsBaromVisibWave heightAir tempDewpointWater temp
2015-Apr-27 21:28N 52°28' E 004°09'0 0.2
2015-Apr-27 20:28N 52°28' E 004°09'0 0.0
2015-Apr-27 19:31N 52°28' E 004°09'0 0.0
2015-Apr-27 18:28N 52°28' E 004°09'0 0.0
2015-Apr-27 17:31N 52°28' E 004°09'0 0.0
2015-Apr-27 16:31N 52°28' E 004°09'0 0.0
2015-Apr-27 15:28N 52°28' E 004°09'0 0.0
2015-Apr-27 14:31N 52°28' E 004°09'0 0.0
2015-Apr-27 13:31N 52°28' E 004°09'0 0.1
2015-Apr-27 12:28N 52°28' E 004°09'0 0.1
2015-Apr-27 11:28N 52°28' E 004°09'0 0.1
2015-Apr-27 10:28N 52°28' E 004°09'0 0.0
2015-Apr-27 09:28N 52°28' E 004°09'0 0.1
2015-Apr-27 08:19N 52°28' E 004°09'0 0.1
2015-Apr-27 07:31N 52°28' E 004°09'0 0.0
2015-Apr-27 06:28N 52°28' E 004°09'0 0.0
2015-Apr-27 05:28N 52°28' E 004°09'0 0.0
2015-Apr-27 04:31N 52°28' E 004°09'0 0.0
2015-Apr-27 03:28N 52°28' E 004°09'0 0.0
2015-Apr-27 02:28N 52°28' E 004°09'0 0.0
2015-Apr-27 01:28N 52°28' E 004°09'0 0.1
2015-Apr-27 00:28N 52°28' E 004°09'0 0.0
2015-Apr-26 23:28N 52°28' E 004°09'0 0.1
2015-Apr-26 22:28N 52°28' E 004°09'0 0.0
2015-Apr-26 21:28N 52°28' E 004°09'0 0.0
2015-Apr-26 20:28N 52°28' E 004°09'0 0.1
2015-Apr-26 19:22N 52°28' E 004°09'0 0.1
2015-Apr-26 18:28N 52°28' E 004°09'0 0.0
2015-Apr-26 17:31N 52°28' E 004°09'0 0.0
2015-Apr-26 16:28N 52°28' E 004°09'0 0.0
2015-Apr-26 15:31N 52°28' E 004°09'0 0.0
2015-Apr-26 14:31N 52°28' E 004°09'0 0.0
2015-Apr-26 13:34N 52°28' E 004°09'0 0.0
2015-Apr-26 12:33N 52°28' E 004°09'0 0.0
2015-Apr-26 11:33N 52°28' E 004°09'0 0.1
2015-Apr-26 10:33N 52°28' E 004°09'0 0.0
2015-Apr-26 09:33N 52°28' E 004°09'0 0.0
2015-Apr-26 08:27N 52°28' E 004°09'0 0.1
2015-Apr-26 07:33N 52°28' E 004°09'3 3.4
2015-Apr-26 06:34N 52°31' E 004°08'1310.7
2015-Apr-26 05:20N 52°43' E 003°60'5310.8
2015-Apr-26 00:28N 53°30' E 004°40'1011.0
2015-Apr-25 23:33N 53°33' E 004°56'1110.6
2015-Apr-25 22:33N 53°37' E 005°13'1010.4
2015-Apr-25 21:33N 53°40' E 005°30'1111.2
2015-Apr-25 20:34N 53°44' E 005°47'4611.4
2015-Apr-25 16:30N 53°57' E 007°03'1111.3
2015-Apr-25 15:33N 53°59' E 007°21'1110.7
2015-Apr-25 14:33N 54°02' E 007°38'1010.5
2015-Apr-25 13:34N 54°01' E 007°56'1010.3
2015-Apr-25 12:33N 54°00' E 008°13'9 9.5
2015-Apr-25 11:33N 53°59' E 008°29'1312.8
2015-Apr-25 10:33N 53°51' E 008°46'1313.3
2015-Apr-25 09:33N 53°54' E 009°09'1 1.0
2015-Apr-25 08:33N 53°54' E 009°10'6 5.8
2015-Apr-25 07:33N 53°59' E 009°16'9 8.2
2015-Apr-25 06:31N 54°07' E 009°20'8 7.8
2015-Apr-25 05:29N 54°11' E 009°31'7 7.8
2015-Apr-25 04:33N 54°17' E 009°39'8 7.7
2015-Apr-25 03:33N 54°22' E 009°49'8 7.7
2015-Apr-25 02:33N 54°22' E 010°02'4 3.6
2015-Apr-25 01:33N 54°22' E 010°09'4 4.0
2015-Apr-25 00:33N 54°25' E 010°13'1010.0
2015-Apr-24 23:33N 54°32' E 010°26'1111.5
2015-Apr-24 22:33N 54°35' E 010°45'1211.7
2015-Apr-24 21:33N 54°36' E 011°05'1111.4
2015-Apr-24 20:33N 54°32' E 011°23'1211.7
2015-Apr-24 19:33N 54°27' E 011°41'1111.4
2015-Apr-24 18:33N 54°26' E 012°01'10 9.7
2015-Apr-24 17:33N 54°32' E 012°14'1211.0
2015-Apr-24 16:29N 54°41' E 012°27'1211.5
2015-Apr-24 15:29N 54°48' E 012°43'1111.4
2015-Apr-24 14:33N 54°47' E 013°02'1111.4
2015-Apr-24 13:33N 54°47' E 013°21'1110.9
2015-Apr-24 12:33N 54°45' E 013°40'1111.2
2015-Apr-24 11:33N 54°42' E 013°59'1211.6
2015-Apr-24 10:30N 54°38' E 014°19'1111.4
2015-Apr-24 09:32N 54°39' E 014°38'1211.6
2015-Apr-24 08:29N 54°44' E 014°58'1111.7
2015-Apr-24 07:33N 54°48' E 015°15'1211.9
2015-Apr-24 06:33N 54°52' E 015°34'1311.3
2015-Apr-24 05:26N 54°57' E 015°55'7710.6
2015-Apr-23 22:11N 55°08' E 018°08'710.6
2015-Apr-23 21:32N 55°06' E 018°19'1010.2
2015-Apr-23 20:33N 55°02' E 018°35'1010.2
2015-Apr-23 19:32N 54°57' E 018°52'9 9.6
2015-Apr-23 18:33N 54°49' E 019°00'1111.3
2015-Apr-23 17:33N 54°39' E 019°06'1111.3
2015-Apr-23 16:33N 54°28' E 018°60'1010.2
2015-Apr-23 15:34N 54°24' E 018°44'1 0.6
2015-Apr-23 14:32N 54°24' E 018°43'0 0.0
2015-Apr-23 13:32N 54°24' E 018°43'0 0.0
2015-Apr-23 12:32N 54°24' E 018°43'0 0.0
2015-Apr-23 11:32N 54°24' E 018°43'0 0.0
2015-Apr-23 10:32N 54°24' E 018°43'0 0.0
2015-Apr-23 09:32N 54°24' E 018°43'0 0.0
2015-Apr-23 08:32N 54°24' E 018°43'0 0.0
2015-Apr-23 07:32N 54°24' E 018°43'0 0.0
2015-Apr-23 06:32N 54°24' E 018°43'0 0.0
2015-Apr-23 05:32N 54°24' E 018°43'0 0.0
2015-Apr-23 04:32N 54°24' E 018°43'0 0.0
2015-Apr-23 03:32N 54°24' E 018°43'0 0.0
2015-Apr-23 02:32N 54°24' E 018°43'0 0.0
2015-Apr-23 01:32N 54°24' E 018°43'0 0.0
2015-Apr-23 00:32N 54°24' E 018°43'0 0.0
2015-Apr-22 23:32N 54°24' E 018°43'0 0.0
2015-Apr-22 22:32N 54°24' E 018°43'0 0.0
2015-Apr-22 21:32N 54°24' E 018°43'0 0.0
2015-Apr-22 20:32N 54°24' E 018°43'0 0.0
2015-Apr-22 19:32N 54°24' E 018°43'0 0.0
2015-Apr-22 18:32N 54°24' E 018°43'0 0.0
2015-Apr-22 17:32N 54°24' E 018°43'0 0.0
2015-Apr-22 16:33N 54°24' E 018°43'2 2.1
2015-Apr-22 15:34N 54°25' E 018°47'9 9.3
2015-Apr-22 14:33N 54°30' E 018°59'1111.1
2015-Apr-22 13:34N 54°41' E 019°03'1211.8
2015-Apr-22 12:33N 54°53' E 019°05'1211.8
2015-Apr-22 11:33N 55°05' E 019°08'1211.8
2015-Apr-22 10:33N 55°16' E 019°10'1211.7
2015-Apr-22 09:30N 55°29' E 019°12'  
2015-Apr-19 01:17N 57°20' E 017°44'15810.7
2015-Apr-18 10:32N 55°21' E 014°36'1311.6
2015-Apr-18 09:22N 55°11' E 014°21'911.6
2015-Apr-18 08:33N 55°03' E 014°11'1511.6
2015-Apr-18 07:17N 54°58' E 013°47'811.6
2015-Apr-18 06:33N 54°55' E 013°33'1211.3
2015-Apr-18 05:32N 54°51' E 013°14'1211.6
2015-Apr-18 04:27N 54°47' E 012°54'1011.4
2015-Apr-18 03:33N 54°43' E 012°38'1211.5
2015-Apr-18 02:33N 54°36' E 012°21'1111.2
2015-Apr-18 01:33N 54°27' E 012°12'1110.9
2015-Apr-18 00:33N 54°25' E 011°53'1211.5
2015-Apr-17 23:33N 54°28' E 011°34'1211.6
2015-Apr-17 22:33N 54°33' E 011°16'  
Track history (hours):
 
Tides and Currents Weather Stations Pressure Air Temp Water Temp Dewpoint Dewpoint Depression Visibility Wind Speed Wind Dir Waves Ship Positions

Ternholm

Last reported at 2015-Apr-27 21:28 UTC. Time now 2015-Apr-27 22:15 UTC.
Position N 52°28' E 004°09'.

Length 141 m; draft 7.9 m.

Type: Ship (hazmat cat B). MMSI: 219076000.

Date/timePositionNaut miles runAvg speedWind from/ knotsBaromVisibWave heightAir tempDewpointWater temp
2015-Apr-27 21:28N 52°28' E 004°09'0 0.2
2015-Apr-27 20:28N 52°28' E 004°09'0 0.0
2015-Apr-27 19:31N 52°28' E 004°09'0 0.0
2015-Apr-27 18:28N 52°28' E 004°09'0 0.0
2015-Apr-27 17:31N 52°28' E 004°09'0 0.0
2015-Apr-27 16:31N 52°28' E 004°09'0 0.0
2015-Apr-27 15:28N 52°28' E 004°09'0 0.0
2015-Apr-27 14:31N 52°28' E 004°09'0 0.0
2015-Apr-27 13:31N 52°28' E 004°09'0 0.1
2015-Apr-27 12:28N 52°28' E 004°09'0 0.1
2015-Apr-27 11:28N 52°28' E 004°09'0 0.1
2015-Apr-27 10:28N 52°28' E 004°09'0 0.0
2015-Apr-27 09:28N 52°28' E 004°09'0 0.1
2015-Apr-27 08:19N 52°28' E 004°09'0 0.1
2015-Apr-27 07:31N 52°28' E 004°09'0 0.0
2015-Apr-27 06:28N 52°28' E 004°09'0 0.0
2015-Apr-27 05:28N 52°28' E 004°09'0 0.0
2015-Apr-27 04:31N 52°28' E 004°09'0 0.0
2015-Apr-27 03:28N 52°28' E 004°09'0 0.0
2015-Apr-27 02:28N 52°28' E 004°09'0 0.0
2015-Apr-27 01:28N 52°28' E 004°09'0 0.1
2015-Apr-27 00:28N 52°28' E 004°09'0 0.0
2015-Apr-26 23:28N 52°28' E 004°09'0 0.1
2015-Apr-26 22:28N 52°28' E 004°09'0 0.0
2015-Apr-26 21:28N 52°28' E 004°09'0 0.0
2015-Apr-26 20:28N 52°28' E 004°09'0 0.1
2015-Apr-26 19:22N 52°28' E 004°09'0 0.1
2015-Apr-26 18:28N 52°28' E 004°09'0 0.0
2015-Apr-26 17:31N 52°28' E 004°09'0 0.0
2015-Apr-26 16:28N 52°28' E 004°09'0 0.0
2015-Apr-26 15:31N 52°28' E 004°09'0 0.0
2015-Apr-26 14:31N 52°28' E 004°09'0 0.0
2015-Apr-26 13:34N 52°28' E 004°09'0 0.0
2015-Apr-26 12:33N 52°28' E 004°09'0 0.0
2015-Apr-26 11:33N 52°28' E 004°09'0 0.1
2015-Apr-26 10:33N 52°28' E 004°09'0 0.0
2015-Apr-26 09:33N 52°28' E 004°09'0 0.0
2015-Apr-26 08:27N 52°28' E 004°09'0 0.1
2015-Apr-26 07:33N 52°28' E 004°09'3 3.4
2015-Apr-26 06:34N 52°31' E 004°08'1310.7
2015-Apr-26 05:20N 52°43' E 003°60'5310.8
2015-Apr-26 00:28N 53°30' E 004°40'1011.0
2015-Apr-25 23:33N 53°33' E 004°56'1110.6
2015-Apr-25 22:33N 53°37' E 005°13'1010.4
2015-Apr-25 21:33N 53°40' E 005°30'1111.2
2015-Apr-25 20:34N 53°44' E 005°47'4611.4
2015-Apr-25 16:30N 53°57' E 007°03'1111.3
2015-Apr-25 15:33N 53°59' E 007°21'1110.7
2015-Apr-25 14:33N 54°02' E 007°38'1010.5
2015-Apr-25 13:34N 54°01' E 007°56'1010.3
2015-Apr-25 12:33N 54°00' E 008°13'9 9.5
2015-Apr-25 11:33N 53°59' E 008°29'1312.8
2015-Apr-25 10:33N 53°51' E 008°46'1313.3
2015-Apr-25 09:33N 53°54' E 009°09'1 1.0
2015-Apr-25 08:33N 53°54' E 009°10'6 5.8
2015-Apr-25 07:33N 53°59' E 009°16'9 8.2
2015-Apr-25 06:31N 54°07' E 009°20'8 7.8
2015-Apr-25 05:29N 54°11' E 009°31'7 7.8
2015-Apr-25 04:33N 54°17' E 009°39'8 7.7
2015-Apr-25 03:33N 54°22' E 009°49'8 7.7
2015-Apr-25 02:33N 54°22' E 010°02'4 3.6
2015-Apr-25 01:33N 54°22' E 010°09'4 4.0
2015-Apr-25 00:33N 54°25' E 010°13'1010.0
2015-Apr-24 23:33N 54°32' E 010°26'1111.5
2015-Apr-24 22:33N 54°35' E 010°45'1211.7
2015-Apr-24 21:33N 54°36' E 011°05'1111.4
2015-Apr-24 20:33N 54°32' E 011°23'1211.7
2015-Apr-24 19:33N 54°27' E 011°41'1111.4
2015-Apr-24 18:33N 54°26' E 012°01'10 9.7
2015-Apr-24 17:33N 54°32' E 012°14'1211.0
2015-Apr-24 16:29N 54°41' E 012°27'1211.5
2015-Apr-24 15:29N 54°48' E 012°43'1111.4
2015-Apr-24 14:33N 54°47' E 013°02'1111.4
2015-Apr-24 13:33N 54°47' E 013°21'1110.9
2015-Apr-24 12:33N 54°45' E 013°40'1111.2
2015-Apr-24 11:33N 54°42' E 013°59'1211.6
2015-Apr-24 10:30N 54°38' E 014°19'1111.4
2015-Apr-24 09:32N 54°39' E 014°38'1211.6
2015-Apr-24 08:29N 54°44' E 014°58'1111.7
2015-Apr-24 07:33N 54°48' E 015°15'1211.9
2015-Apr-24 06:33N 54°52' E 015°34'1311.3
2015-Apr-24 05:26N 54°57' E 015°55'7710.6
2015-Apr-23 22:11N 55°08' E 018°08'710.6
2015-Apr-23 21:32N 55°06' E 018°19'1010.2
2015-Apr-23 20:33N 55°02' E 018°35'1010.2
2015-Apr-23 19:32N 54°57' E 018°52'9 9.6
2015-Apr-23 18:33N 54°49' E 019°00'1111.3
2015-Apr-23 17:33N 54°39' E 019°06'1111.3
2015-Apr-23 16:33N 54°28' E 018°60'1010.2
2015-Apr-23 15:34N 54°24' E 018°44'1 0.6
2015-Apr-23 14:32N 54°24' E 018°43'0 0.0
2015-Apr-23 13:32N 54°24' E 018°43'0 0.0
2015-Apr-23 12:32N 54°24' E 018°43'0 0.0
2015-Apr-23 11:32N 54°24' E 018°43'0 0.0
2015-Apr-23 10:32N 54°24' E 018°43'0 0.0
2015-Apr-23 09:32N 54°24' E 018°43'0 0.0
2015-Apr-23 08:32N 54°24' E 018°43'0 0.0
2015-Apr-23 07:32N 54°24' E 018°43'0 0.0
2015-Apr-23 06:32N 54°24' E 018°43'0 0.0
2015-Apr-23 05:32N 54°24' E 018°43'0 0.0
2015-Apr-23 04:32N 54°24' E 018°43'0 0.0
2015-Apr-23 03:32N 54°24' E 018°43'0 0.0
2015-Apr-23 02:32N 54°24' E 018°43'0 0.0
2015-Apr-23 01:32N 54°24' E 018°43'0 0.0
2015-Apr-23 00:32N 54°24' E 018°43'0 0.0
2015-Apr-22 23:32N 54°24' E 018°43'0 0.0
2015-Apr-22 22:32N 54°24' E 018°43'0 0.0
2015-Apr-22 21:32N 54°24' E 018°43'0 0.0
2015-Apr-22 20:32N 54°24' E 018°43'0 0.0
2015-Apr-22 19:32N 54°24' E 018°43'0 0.0
2015-Apr-22 18:32N 54°24' E 018°43'0 0.0
2015-Apr-22 17:32N 54°24' E 018°43'0 0.0
2015-Apr-22 16:33N 54°24' E 018°43'2 2.1
2015-Apr-22 15:34N 54°25' E 018°47'9 9.3
2015-Apr-22 14:33N 54°30' E 018°59'1111.1
2015-Apr-22 13:34N 54°41' E 019°03'1211.8
2015-Apr-22 12:33N 54°53' E 019°05'1211.8
2015-Apr-22 11:33N 55°05' E 019°08'1211.8
2015-Apr-22 10:33N 55°16' E 019°10'1211.7
2015-Apr-22 09:30N 55°29' E 019°12'  
2015-Apr-19 01:17N 57°20' E 017°44'15810.7
2015-Apr-18 10:32N 55°21' E 014°36'1311.6
2015-Apr-18 09:22N 55°11' E 014°21'911.6
2015-Apr-18 08:33N 55°03' E 014°11'1511.6
2015-Apr-18 07:17N 54°58' E 013°47'811.6
2015-Apr-18 06:33N 54°55' E 013°33'1211.3
2015-Apr-18 05:32N 54°51' E 013°14'1211.6
2015-Apr-18 04:27N 54°47' E 012°54'1011.4
2015-Apr-18 03:33N 54°43' E 012°38'1211.5
2015-Apr-18 02:33N 54°36' E 012°21'1111.2
2015-Apr-18 01:33N 54°27' E 012°12'1110.9
2015-Apr-18 00:33N 54°25' E 011°53'1211.5
2015-Apr-17 23:33N 54°28' E 011°34'1211.6
2015-Apr-17 22:33N 54°33' E 011°16'  

Dump ship's entire track history